Huvudsida
METAR-TAF:

METAR-TAF

Flygplatser :

Albenga, Italien

latitud: 44-03N, longitud: 008-07E, höjd: 45 m

Aktuellt väderrapport

Denna rapport gjordes för 10 timmar och 47 minuter sedan, klockan 17:50 UTC
Vind 6 kt från ost
Temperatur 25°C
Fuktighet 69%
Tryck 1012 hPa
Sikt 10 km eller mer
Inga moln under 1 500 m eller inga cumulonimbus

METAR: LIMG 181750Z 10006KT CAVOK 25/19 Q1012

Tid: 06:37 (04:37 UTC)


TAF: saknas

Aktuella väderrapporter och prognoser från 4000 flygplatser (METAR- och TAF-rapporter).

De tillgängliga stationerna syns som gula och röda prickar på kartan.

För musen över prickarna för att se namnen på stationerna.

Klicka sedan för att få väderrapporter och prognoser.

För att ändra kartan: Klicka på de gröna knapparna med ett svart kors på för att zooma in; den gröna knappen med ett streck på för att zooma ut; eller på de gröna pilarna för angränsande kartor.


METAR-TAF: